Time;durP1;ratioP1;P1;durP2;ratioP2;P2;SDS_P1;SDS_P2;PMS_P1;PMS_P2;Temp;Humidity;BMP_temperature;BMP_pressure;BME280_temperature;BME280_humidity;BME280_pressure;Samples;Min_cycle;Max_cycle;Signal;HPM_P1;HPM_P2
2023/03/30 00:01:15;;;;;;;12.73;7.80;;;15.90;23.20;;;;;;5024044;28;20424;-77
2023/03/30 00:03:42;;;;;;;7.10;6.80;;;15.80;23.50;;;;;;5025821;28;20689;-77
2023/03/30 00:06:09;;;;;;;7.40;7.10;;;15.80;23.50;;;;;;5028646;28;20410;-77
2023/03/30 00:08:35;;;;;;;8.20;7.60;;;15.90;22.80;;;;;;5024653;28;20430;-77
2023/03/30 00:11:06;;;;;;;7.73;7.33;;;15.90;22.90;;;;;;5025210;28;20462;-76
2023/03/30 00:13:34;;;;;;;7.43;7.10;;;15.90;22.40;;;;;;5024937;28;20462;-76
2023/03/30 00:16:00;;;;;;;8.77;7.97;;;15.90;22.00;;;;;;5023834;28;20444;-77
2023/03/30 00:18:26;;;;;;;7.87;7.37;;;16.00;22.40;;;;;;5023344;28;20411;-77
2023/03/30 00:20:52;;;;;;;8.70;7.90;;;16.00;22.20;;;;;;5026604;28;20464;-76
2023/03/30 00:23:18;;;;;;;12.73;8.07;;;16.00;22.20;;;;;;5024958;28;20442;-77
2023/03/30 00:25:46;;;;;;;9.83;8.10;;;16.00;22.30;;;;;;5024526;28;20948;-78
2023/03/30 00:28:12;;;;;;;8.03;7.43;;;16.00;22.20;;;;;;5024328;28;20962;-76
2023/03/30 00:30:38;;;;;;;9.43;8.60;;;16.00;22.40;;;;;;5026150;28;20450;-77
2023/03/30 00:33:04;;;;;;;8.30;7.70;;;16.00;22.40;;;;;;5023719;28;20176;-77
2023/03/30 00:35:30;;;;;;;8.80;8.10;;;16.00;22.60;;;;;;5027490;28;20462;-77
2023/03/30 00:37:56;;;;;;;8.40;7.70;;;16.00;22.90;;;;;;5027380;28;20998;-78
2023/03/30 00:40:22;;;;;;;9.30;8.70;;;15.90;23.60;;;;;;5032338;28;20212;-77
2023/03/30 00:42:48;;;;;;;9.53;7.80;;;15.90;23.20;;;;;;5036720;28;20408;-77
2023/03/30 00:45:28;;;;;;;8.00;7.20;;;15.90;23.30;;;;;;5039293;28;20427;-77
2023/03/30 00:48:14;;;;;;;8.97;8.17;;;15.90;23.40;;;;;;5039877;28;20187;-77
2023/03/30 00:50:45;;;;;;;8.70;7.97;;;15.80;23.10;;;;;;5033286;28;20446;-77
2023/03/30 00:53:19;;;;;;;9.47;8.20;;;15.80;23.40;;;;;;5032354;28;20458;-76
2023/03/30 00:55:47;;;;;;;8.53;7.73;;;15.80;23.70;;;;;;5032806;28;20399;-77
2023/03/30 00:58:15;;;;;;;11.13;9.13;;;15.70;23.80;;;;;;5034512;28;20762;-77
2023/03/30 01:00:42;;;;;;;8.97;8.37;;;15.70;24.00;;;;;;5036868;28;20445;-76
2023/03/30 01:03:21;;;;;;;12.10;8.27;;;15.60;24.10;;;;;;5029609;28;20928;-77
2023/03/30 01:05:48;;;;;;;9.43;8.67;;;15.60;24.20;;;;;;5027491;28;20789;-77
2023/03/30 01:08:15;;;;;;;9.23;8.47;;;15.60;24.30;;;;;;5026631;28;20441;-76
2023/03/30 01:10:42;;;;;;;8.27;7.57;;;15.60;24.40;;;;;;5026675;28;20550;-77
2023/03/30 01:13:07;;;;;;;7.73;7.33;;;15.60;24.60;;;;;;5027426;28;20407;-77
2023/03/30 01:15:39;;;;;;;8.33;7.73;;;15.60;24.70;;;;;;5027403;28;20892;-76
2023/03/30 01:18:18;;;;;;;8.70;7.80;;;15.60;24.90;;;;;;5026837;28;20192;-77
2023/03/30 01:21:16;;;;;;;8.67;8.10;;;15.60;24.80;;;;;;5025554;28;20450;-76
2023/03/30 01:23:57;;;;;;;8.80;8.10;;;15.60;25.10;;;;;;5023575;28;20450;-75
2023/03/30 01:26:47;;;;;;;9.20;7.53;;;15.60;25.10;;;;;;5026195;28;20433;-76
2023/03/30 01:29:43;;;;;;;8.70;7.90;;;15.60;25.20;;;;;;5024288;28;20411;-77
2023/03/30 01:32:33;;;;;;;9.47;8.50;;;15.50;25.60;;;;;;5024856;28;20463;-76
2023/03/30 01:35:09;;;;;;;12.33;8.97;;;15.60;26.50;;;;;;5020739;28;20432;-76
2023/03/30 01:38:28;;;;;;;7.67;7.30;;;15.60;27.00;;;;;;5024615;28;20498;-76
2023/03/30 01:41:09;;;;;;;8.63;8.13;;;15.60;27.40;;;;;;5024680;28;20857;-76
2023/03/30 01:44:10;;;;;;;10.37;9.37;;;15.50;28.10;;;;;;5024512;28;20423;-76
2023/03/30 01:46:44;;;;;;;11.87;10.67;;;15.50;29.10;;;;;;5023214;28;20411;-77
2023/03/30 01:49:22;;;;;;;9.67;9.10;;;15.40;30.60;;;;;;5024763;28;20415;-76
2023/03/30 01:51:55;;;;;;;13.90;10.13;;;15.30;32.70;;;;;;5024280;28;20462;-76
2023/03/30 01:54:31;;;;;;;10.90;10.30;;;15.20;32.30;;;;;;5022770;28;20803;-77
2023/03/30 01:57:05;;;;;;;10.97;8.93;;;15.10;33.10;;;;;;5023901;28;20518;-76
2023/03/30 01:59:42;;;;;;;10.80;9.50;;;15.00;33.50;;;;;;5022045;28;20488;-75
2023/03/30 02:02:11;;;;;;;12.70;11.70;;;15.00;32.90;;;;;;5021394;28;20419;-76
2023/03/30 02:04:39;;;;;;;11.03;10.07;;;15.00;33.50;;;;;;5021002;28;21010;-76
2023/03/30 02:07:14;;;;;;;12.77;11.30;;;15.00;33.20;;;;;;5024363;28;20493;-76
2023/03/30 02:09:41;;;;;;;12.63;10.57;;;15.00;33.30;;;;;;5022522;28;20795;-76
2023/03/30 02:12:09;;;;;;;12.60;11.47;;;15.00;33.90;;;;;;5025465;28;20465;-76
2023/03/30 02:14:37;;;;;;;12.97;10.60;;;15.00;33.40;;;;;;5023292;28;20427;-76
2023/03/30 02:17:17;;;;;;;11.90;10.93;;;14.90;33.80;;;;;;5023664;28;20504;-75
2023/03/30 02:19:47;;;;;;;12.43;11.27;;;15.00;33.60;;;;;;5025023;28;20797;-76
2023/03/30 02:22:14;;;;;;;11.50;10.40;;;15.00;33.10;;;;;;5021614;28;20447;-76
2023/03/30 02:24:42;;;;;;;15.43;12.10;;;15.00;33.00;;;;;;5025082;28;20444;-75
2023/03/30 02:27:08;;;;;;;14.17;9.30;;;15.00;33.40;;;;;;5020202;28;20447;-76
2023/03/30 02:29:38;;;;;;;17.73;10.80;;;15.00;32.90;;;;;;5022241;28;20423;-76
2023/03/30 02:32:04;;;;;;;9.53;9.00;;;15.00;33.40;;;;;;5022449;28;20462;-75
2023/03/30 02:35:09;;;;;;;10.60;9.73;;;15.00;33.50;;;;;;5022360;28;20432;-76
2023/03/30 02:37:41;;;;;;;10.17;9.27;;;15.00;33.10;;;;;;5023125;28;20434;-76
2023/03/30 02:40:29;;;;;;;10.37;9.53;;;15.00;33.20;;;;;;5024470;28;20755;-75
2023/03/30 02:43:02;;;;;;;13.20;10.90;;;14.90;33.00;;;;;;5022607;28;20411;-76
2023/03/30 02:45:45;;;;;;;11.13;10.50;;;14.90;34.00;;;;;;5022112;28;20411;-77
2023/03/30 02:48:20;;;;;;;11.30;10.70;;;14.90;33.00;;;;;;5024120;28;20441;-76
2023/03/30 02:51:12;;;;;;;11.77;10.80;;;14.90;34.20;;;;;;5029934;28;20458;-77
2023/03/30 02:54:16;;;;;;;13.73;11.53;;;14.90;34.10;;;;;;5033131;28;20506;-76
2023/03/30 02:56:55;;;;;;;11.30;10.40;;;14.90;34.70;;;;;;5031833;28;20446;-76
2023/03/30 02:59:36;;;;;;;12.10;11.20;;;14.90;35.30;;;;;;5031992;28;20477;-75
2023/03/30 03:02:21;;;;;;;11.73;10.53;;;14.90;37.10;;;;;;5029186;28;20786;-75
2023/03/30 03:04:48;;;;;;;12.30;10.43;;;14.80;36.40;;;;;;5019948;28;20550;-76
2023/03/30 03:07:14;;;;;;;11.47;10.47;;;14.80;37.80;;;;;;5023067;28;20443;-76
2023/03/30 03:09:41;;;;;;;14.93;13.20;;;14.70;38.40;;;;;;5020608;28;20944;-77
2023/03/30 03:12:06;;;;;;;12.00;11.00;;;14.60;39.70;;;;;;5020492;28;20489;-77
2023/03/30 03:14:32;;;;;;;13.47;11.97;;;14.40;40.90;;;;;;5022147;28;20424;-76
2023/03/30 03:16:58;;;;;;;12.17;10.30;;;14.40;42.00;;;;;;5019741;28;20608;-77
2023/03/30 03:19:23;;;;;;;12.33;11.23;;;14.30;42.40;;;;;;5020971;28;20506;-77
2023/03/30 03:21:49;;;;;;;12.43;11.13;;;14.30;44.00;;;;;;5021778;28;20204;-77
2023/03/30 03:24:48;;;;;;;13.33;11.83;;;14.30;43.40;;;;;;5020219;28;20196;-77
2023/03/30 03:27:14;;;;;;;13.90;10.13;;;14.40;43.30;;;;;;5018186;28;20540;-77
2023/03/30 03:29:39;;;;;;;12.17;10.90;;;14.30;44.00;;;;;;5021553;28;20470;-77
2023/03/30 03:32:05;;;;;;;11.67;10.97;;;14.20;44.20;;;;;;5019966;28;20196;-76
2023/03/30 03:34:31;;;;;;;13.63;10.50;;;14.20;44.20;;;;;;5021037;28;20189;-77
2023/03/30 03:36:57;;;;;;;18.30;11.47;;;14.20;44.10;;;;;;5023855;28;20416;-76
2023/03/30 03:39:23;;;;;;;12.00;11.10;;;14.30;44.70;;;;;;5023681;28;20267;-77
2023/03/30 03:41:48;;;;;;;12.30;10.67;;;14.40;43.50;;;;;;5024602;28;20494;-77
2023/03/30 03:44:14;;;;;;;11.63;10.70;;;14.40;43.60;;;;;;5024720;28;20221;-77
2023/03/30 03:46:40;;;;;;;10.33;9.83;;;14.50;43.30;;;;;;5026441;28;20544;-77
2023/03/30 03:49:06;;;;;;;11.17;10.33;;;14.50;43.10;;;;;;5031253;28;20411;-77
2023/03/30 03:51:32;;;;;;;10.23;9.60;;;14.50;42.90;;;;;;5031475;28;20478;-77
2023/03/30 03:53:58;;;;;;;11.20;10.40;;;14.50;43.20;;;;;;5032144;28;20193;-77
2023/03/30 03:56:24;;;;;;;10.83;9.93;;;14.40;43.50;;;;;;5032200;28;20773;-76
2023/03/30 03:58:50;;;;;;;10.47;9.77;;;14.40;43.50;;;;;;5032092;28;20411;-76
2023/03/30 04:01:16;;;;;;;11.63;10.70;;;14.40;43.90;;;;;;5031508;28;20175;-76
2023/03/30 04:03:41;;;;;;;11.77;10.87;;;14.30;44.00;;;;;;5031897;28;20795;-77
2023/03/30 04:06:08;;;;;;;12.90;10.90;;;14.30;44.30;;;;;;5031959;28;20226;-76
2023/03/30 04:08:34;;;;;;;12.17;9.90;;;14.40;44.60;;;;;;5030640;28;20183;-77
2023/03/30 04:11:08;;;;;;;10.93;10.03;;;14.40;43.80;;;;;;5031513;28;20463;-76
2023/03/30 04:13:34;;;;;;;9.73;8.73;;;14.50;43.70;;;;;;5031710;28;20431;-77
2023/03/30 04:16:00;;;;;;;10.77;10.23;;;14.50;43.30;;;;;;5031943;28;20412;-77
2023/03/30 04:18:32;;;;;;;11.43;10.63;;;14.60;42.90;;;;;;5032075;28;20837;-77
2023/03/30 04:21:06;;;;;;;15.43;10.50;;;14.60;42.50;;;;;;5032874;28;20423;-77
2023/03/30 04:23:32;;;;;;;10.97;10.10;;;14.60;43.10;;;;;;5031790;28;20443;-77
2023/03/30 04:26:06;;;;;;;11.53;10.70;;;14.70;42.80;;;;;;5031088;28;20420;-77
2023/03/30 04:28:33;;;;;;;11.90;10.90;;;14.70;42.20;;;;;;5031329;28;20407;-77
2023/03/30 04:31:03;;;;;;;11.37;10.57;;;14.80;41.70;;;;;;5030425;28;20960;-77
2023/03/30 04:33:33;;;;;;;10.40;9.90;;;14.90;42.00;;;;;;5033828;28;20482;-77
2023/03/30 04:35:59;;;;;;;10.87;9.97;;;14.90;41.70;;;;;;5035742;28;20407;-77
2023/03/30 04:38:26;;;;;;;11.50;10.70;;;14.90;41.30;;;;;;5032327;28;20797;-77
2023/03/30 04:40:52;;;;;;;11.10;10.40;;;15.00;41.10;;;;;;5029832;28;20457;-77
2023/03/30 04:43:20;;;;;;;10.47;9.90;;;15.00;41.20;;;;;;5034319;28;20446;-77
2023/03/30 04:45:53;;;;;;;12.00;10.97;;;15.00;40.90;;;;;;5035081;28;20264;-77
2023/03/30 04:48:20;;;;;;;10.87;10.17;;;15.00;40.30;;;;;;5035208;28;20415;-76
2023/03/30 04:50:48;;;;;;;11.97;10.83;;;15.00;40.60;;;;;;5034908;28;21016;-77
2023/03/30 04:53:15;;;;;;;10.87;9.73;;;15.00;40.80;;;;;;5034410;28;20472;-76
2023/03/30 04:55:41;;;;;;;10.87;10.03;;;15.00;40.70;;;;;;5034659;28;20452;-77
2023/03/30 04:58:10;;;;;;;11.00;10.40;;;14.70;41.20;;;;;;5035202;28;20881;-76
2023/03/30 05:00:36;;;;;;;11.30;10.40;;;14.60;42.40;;;;;;5035303;28;20913;-76
2023/03/30 05:03:02;;;;;;;13.63;10.63;;;14.40;42.80;;;;;;5034120;28;20959;-77
2023/03/30 05:05:27;;;;;;;11.30;10.50;;;14.30;43.70;;;;;;5034418;28;20415;-77
2023/03/30 05:07:53;;;;;;;11.37;10.17;;;14.20;43.70;;;;;;5034691;28;20836;-76
2023/03/30 05:10:18;;;;;;;12.83;10.70;;;14.10;44.30;;;;;;5034498;28;20544;-76
2023/03/30 05:12:44;;;;;;;17.03;11.70;;;14.00;45.10;;;;;;5033557;28;20606;-77
2023/03/30 05:15:10;;;;;;;19.20;11.10;;;14.00;45.20;;;;;;5034544;28;20196;-77
2023/03/30 05:17:37;;;;;;;14.00;11.00;;;14.00;45.20;;;;;;5034155;28;20172;-77
2023/03/30 05:20:07;;;;;;;12.50;11.33;;;14.00;44.60;;;;;;5034831;28;20897;-76
2023/03/30 05:22:33;;;;;;;15.33;11.80;;;14.00;44.40;;;;;;5033676;28;20908;-77
2023/03/30 05:25:00;;;;;;;16.60;11.03;;;14.10;45.20;;;;;;5034206;28;20430;-77
2023/03/30 05:27:25;;;;;;;13.93;10.73;;;14.10;44.80;;;;;;5032697;28;20424;-77
2023/03/30 05:29:51;;;;;;;12.77;11.40;;;14.10;45.20;;;;;;5034117;28;21033;-77
2023/03/30 05:32:17;;;;;;;13.23;12.07;;;14.10;45.30;;;;;;5029207;28;20288;-77
2023/03/30 05:34:43;;;;;;;13.23;12.07;;;14.10;44.80;;;;;;5032212;28;20477;-77
2023/03/30 05:37:08;;;;;;;12.50;11.33;;;14.10;44.70;;;;;;5029373;28;20546;-77
2023/03/30 05:39:35;;;;;;;15.17;12.17;;;14.10;44.10;;;;;;5025548;28;20182;-76
2023/03/30 05:42:01;;;;;;;13.00;11.70;;;14.10;44.40;;;;;;5020743;28;20169;-77
2023/03/30 05:44:26;;;;;;;15.87;11.77;;;14.10;44.60;;;;;;5028930;28;20428;-76
2023/03/30 05:46:52;;;;;;;14.97;11.60;;;14.10;44.60;;;;;;5019610;28;20447;-77
2023/03/30 05:49:18;;;;;;;12.57;11.30;;;14.10;45.20;;;;;;5031582;28;20403;-77
2023/03/30 05:51:46;;;;;;;12.50;11.23;;;14.10;45.20;;;;;;5031982;28;20209;-76
2023/03/30 05:54:12;;;;;;;18.27;12.37;;;14.10;45.20;;;;;;5029798;28;20223;-77
2023/03/30 05:56:41;;;;;;;12.80;11.50;;;14.10;44.70;;;;;;5033007;28;20779;-77
2023/03/30 05:59:07;;;;;;;12.87;11.30;;;14.10;45.20;;;;;;5032543;28;20415;-76
2023/03/30 06:01:32;;;;;;;18.50;12.23;;;14.10;45.20;;;;;;5032634;28;20411;-78
2023/03/30 06:03:58;;;;;;;14.77;13.30;;;14.10;45.20;;;;;;5031597;28;20462;-76
2023/03/30 06:06:23;;;;;;;14.03;12.53;;;14.10;45.30;;;;;;5034540;28;20577;-77
2023/03/30 06:08:50;;;;;;;11.47;10.47;;;14.10;45.30;;;;;;5030352;28;20197;-75
2023/03/30 06:11:15;;;;;;;14.93;11.83;;;14.10;45.20;;;;;;5029769;28;20682;-76
2023/03/30 06:13:41;;;;;;;16.07;11.80;;;14.10;45.30;;;;;;5032123;28;20436;-76
2023/03/30 06:16:07;;;;;;;19.03;11.90;;;14.20;45.30;;;;;;5033049;28;20181;-76
2023/03/30 06:18:33;;;;;;;12.50;11.27;;;14.20;45.30;;;;;;5033288;28;20643;-76
2023/03/30 06:21:01;;;;;;;16.33;11.10;;;14.20;45.30;;;;;;5033487;28;20438;-76
2023/03/30 06:23:27;;;;;;;12.30;11.10;;;14.30;45.40;;;;;;5030958;28;20695;-76
2023/03/30 06:25:54;;;;;;;14.87;13.43;;;14.30;45.40;;;;;;5032389;28;20427;-76
2023/03/30 06:28:20;;;;;;;13.37;11.87;;;14.40;45.50;;;;;;5037333;28;20772;-77
2023/03/30 06:30:47;;;;;;;17.90;10.40;;;14.50;45.60;;;;;;5037973;28;20474;-76
2023/03/30 06:33:15;;;;;;;14.47;11.17;;;14.50;45.60;;;;;;5039563;28;20447;-74
2023/03/30 06:35:51;;;;;;;13.43;10.00;;;14.50;45.10;;;;;;5034771;28;20435;-76
2023/03/30 06:38:18;;;;;;;19.73;11.97;;;14.60;45.70;;;;;;5031459;28;20428;-75
2023/03/30 06:40:44;;;;;;;12.80;11.03;;;14.50;45.00;;;;;;5038744;28;20790;-77
2023/03/30 06:43:18;;;;;;;12.07;10.73;;;14.50;45.50;;;;;;5033423;28;20501;-76
2023/03/30 06:45:55;;;;;;;11.63;10.50;;;14.50;45.60;;;;;;5034473;28;20415;-77
2023/03/30 06:48:22;;;;;;;13.23;11.23;;;14.40;45.50;;;;;;5034066;28;20415;-77
2023/03/30 06:50:50;;;;;;;15.23;11.20;;;14.40;44.90;;;;;;5031849;28;20550;-78
2023/03/30 06:53:15;;;;;;;12.67;11.40;;;14.50;44.10;;;;;;5031619;28;20485;-77
2023/03/30 06:55:41;;;;;;;15.50;11.40;;;14.60;42.90;;;;;;5032458;28;20908;-77
2023/03/30 06:58:07;;;;;;;12.77;11.70;;;14.70;42.20;;;;;;5032387;28;20181;-76
2023/03/30 07:00:33;;;;;;;9.90;9.40;;;14.60;43.10;;;;;;5033531;28;20250;-76
2023/03/30 07:02:59;;;;;;;13.03;10.57;;;14.50;43.40;;;;;;5032947;28;20177;-75
2023/03/30 07:05:24;;;;;;;15.37;11.40;;;14.60;43.10;;;;;;5030406;28;20891;-75
2023/03/30 07:07:53;;;;;;;11.93;10.80;;;14.60;43.70;;;;;;5030606;28;20647;-75
2023/03/30 07:10:19;;;;;;;12.27;11.07;;;14.60;43.40;;;;;;5024245;28;20662;-76
2023/03/30 07:12:45;;;;;;;12.40;10.70;;;14.70;42.60;;;;;;5032176;28;21020;-76
2023/03/30 07:15:11;;;;;;;11.30;10.17;;;14.70;43.00;;;;;;5032380;28;20463;-76
2023/03/30 07:17:38;;;;;;;11.10;10.17;;;14.70;43.10;;;;;;5031069;28;20179;-75
2023/03/30 07:20:16;;;;;;;11.30;10.13;;;14.80;43.50;;;;;;5034258;28;20431;-75
2023/03/30 07:22:41;;;;;;;13.60;10.97;;;14.60;45.70;;;;;;5025540;28;20482;-75
2023/03/30 07:25:08;;;;;;;13.87;10.10;;;14.60;47.70;;;;;;5031828;28;20431;-76
2023/03/30 07:27:36;;;;;;;9.97;9.00;;;14.60;47.80;;;;;;5030896;28;20224;-75
2023/03/30 07:30:04;;;;;;;12.57;11.37;;;14.50;49.00;;;;;;5032486;28;21046;-75
2023/03/30 07:32:30;;;;;;;9.30;8.57;;;14.50;49.20;;;;;;5026829;28;20467;-75
2023/03/30 07:34:56;;;;;;;10.03;9.30;;;14.50;49.80;;;;;;5023039;28;20467;-76
2023/03/30 07:37:22;;;;;;;14.80;10.33;;;14.50;50.90;;;;;;5026518;28;20184;-76
2023/03/30 07:39:48;;;;;;;9.67;8.90;;;14.30;50.10;;;;;;5032233;28;20419;-75
2023/03/30 07:42:13;;;;;;;9.97;8.90;;;14.30;51.10;;;;;;5031895;28;20184;-76
2023/03/30 07:44:39;;;;;;;11.27;9.10;;;14.30;50.80;;;;;;5031890;28;20205;-76
2023/03/30 07:47:05;;;;;;;8.73;8.13;;;14.40;50.60;;;;;;5032277;28;20584;-77
2023/03/30 07:49:31;;;;;;;10.30;9.30;;;14.50;50.10;;;;;;5026898;28;20180;-76
2023/03/30 07:51:58;;;;;;;11.70;9.90;;;14.30;49.90;;;;;;5030573;28;20896;-77
2023/03/30 07:54:23;;;;;;;10.77;9.90;;;14.30;50.90;;;;;;5029340;28;21026;-76
2023/03/30 07:56:52;;;;;;;11.60;10.40;;;14.30;51.40;;;;;;5031235;28;20416;-77
2023/03/30 07:59:19;;;;;;;11.07;10.13;;;14.30;52.40;;;;;;5028716;28;20176;-76
2023/03/30 08:01:45;;;;;;;10.50;9.60;;;14.20;52.40;;;;;;5027745;28;20458;-75
2023/03/30 08:04:11;;;;;;;9.77;8.93;;;14.20;52.20;;;;;;5029306;28;20474;-75
2023/03/30 08:06:37;;;;;;;10.57;9.53;;;14.30;52.40;;;;;;5031195;28;20418;-76
2023/03/30 08:09:03;;;;;;;10.23;9.40;;;14.20;52.60;;;;;;5029965;28;20423;-76
2023/03/30 08:11:29;;;;;;;10.70;9.90;;;14.30;52.50;;;;;;5029481;28;20286;-76
2023/03/30 08:13:54;;;;;;;8.10;7.80;;;14.30;52.20;;;;;;5024861;28;20450;-75
2023/03/30 08:16:20;;;;;;;9.30;8.70;;;14.30;51.60;;;;;;5030363;28;20199;-76
2023/03/30 08:18:46;;;;;;;9.23;8.70;;;14.40;50.90;;;;;;5030573;28;20177;-75
2023/03/30 08:21:11;;;;;;;9.20;8.70;;;14.40;50.20;;;;;;5031229;28;20177;-75
2023/03/30 08:23:37;;;;;;;9.17;8.67;;;14.30;50.50;;;;;;5031875;28;20438;-76
2023/03/30 08:26:03;;;;;;;10.37;9.27;;;14.30;50.80;;;;;;5031625;28;20176;-75
2023/03/30 08:28:28;;;;;;;10.60;9.90;;;14.10;51.30;;;;;;5029225;28;20184;-76
2023/03/30 08:30:55;;;;;;;9.33;8.50;;;13.90;52.60;;;;;;5030272;28;20291;-74
2023/03/30 08:33:22;;;;;;;9.27;8.37;;;14.00;52.80;;;;;;5031094;28;20196;-75
2023/03/30 08:35:48;;;;;;;9.50;8.90;;;14.00;52.50;;;;;;5029199;28;20435;-74
2023/03/30 08:38:16;;;;;;;9.17;8.47;;;14.10;52.40;;;;;;5028129;28;20466;-76
2023/03/30 08:40:42;;;;;;;12.23;9.77;;;14.10;52.50;;;;;;5027692;28;20170;-76
2023/03/30 08:43:29;;;;;;;10.10;9.37;;;14.00;51.80;;;;;;5026946;28;20428;-75
2023/03/30 08:45:59;;;;;;;10.70;9.80;;;14.00;52.40;;;;;;5030065;28;20792;-76
2023/03/30 08:48:27;;;;;;;10.70;9.67;;;13.90;52.20;;;;;;5033384;28;20423;-74
2023/03/30 08:51:06;;;;;;;11.50;9.33;;;13.90;54.00;;;;;;5027283;28;20521;-75
2023/03/30 08:53:32;;;;;;;10.90;10.10;;;13.90;54.30;;;;;;5023035;28;20446;-76
2023/03/30 08:56:20;;;;;;;9.90;9.10;;;13.80;54.60;;;;;;5026688;28;20490;-75
2023/03/30 08:59:11;;;;;;;9.27;8.77;;;13.80;54.70;;;;;;5029575;28;20415;-75
2023/03/30 09:01:53;;;;;;;9.60;8.90;;;13.90;55.20;;;;;;5010451;28;20404;-75
2023/03/30 09:04:48;;;;;;;10.57;9.50;;;13.80;55.70;;;;;;5011592;28;20431;-74
2023/03/30 09:07:21;;;;;;;9.10;8.40;;;13.80;55.80;;;;;;5008821;28;20422;-76
2023/03/30 09:09:50;;;;;;;12.20;11.10;;;13.80;55.60;;;;;;5025640;28;20443;-75
2023/03/30 09:12:27;;;;;;;10.40;9.43;;;13.80;56.40;;;;;;5027623;28;20467;-75
2023/03/30 09:15:04;;;;;;;8.60;7.90;;;13.80;55.70;;;;;;5030810;28;20510;-76
2023/03/30 09:17:42;;;;;;;9.53;8.70;;;13.70;55.60;;;;;;5028935;28;20427;-76
2023/03/30 09:20:17;;;;;;;8.40;7.80;;;13.50;53.70;;;;;;5033525;28;20812;-76
2023/03/30 09:22:44;;;;;;;9.40;8.53;;;13.50;53.70;;;;;;5030532;28;20459;-75
2023/03/30 09:25:17;;;;;;;9.80;8.80;;;13.50;53.60;;;;;;5033601;28;20852;-76
2023/03/30 09:28:35;;;;;;;10.30;9.37;;;13.50;52.20;;;;;;5033169;28;20450;-76
2023/03/30 09:31:07;;;;;;;8.37;7.87;;;13.50;52.10;;;;;;4974609;28;20465;-76
2023/03/30 09:33:55;;;;;;;9.23;8.43;;;13.50;51.20;;;;;;5034492;28;20438;-76
2023/03/30 09:36:26;;;;;;;8.40;8.00;;;13.50;50.70;;;;;;5031281;28;20449;-76
2023/03/30 09:38:52;;;;;;;8.13;7.50;;;13.50;50.50;;;;;;5033999;28;20900;-75
2023/03/30 09:41:42;;;;;;;8.53;8.10;;;13.40;49.70;;;;;;5029366;28;20422;-75
2023/03/30 09:44:21;;;;;;;8.30;7.80;;;13.50;50.10;;;;;;5032764;28;20423;-75
2023/03/30 09:46:48;;;;;;;8.83;8.13;;;13.50;49.30;;;;;;5032319;28;20414;-75
2023/03/30 09:49:15;;;;;;;10.27;9.53;;;13.50;49.20;;;;;;5031013;28;20435;-75
2023/03/30 09:52:21;;;;;;;8.83;8.33;;;13.50;48.60;;;;;;5032577;28;20463;-75
2023/03/30 09:54:46;;;;;;;8.13;7.43;;;13.60;50.30;;;;;;5030438;28;20470;-76
2023/03/30 09:57:23;;;;;;;9.10;8.60;;;13.60;49.10;;;;;;5030503;28;20922;-76
2023/03/30 09:59:49;;;;;;;8.37;7.87;;;13.60;48.50;;;;;;5032566;28;20223;-75
2023/03/30 10:02:17;;;;;;;9.47;8.47;;;13.70;48.30;;;;;;5032184;28;20450;-75
2023/03/30 10:04:55;;;;;;;9.33;8.83;;;13.70;48.90;;;;;;5026909;28;20235;-76
2023/03/30 10:07:32;;;;;;;9.20;8.53;;;13.70;47.90;;;;;;5033057;28;20452;-75
2023/03/30 10:10:00;;;;;;;9.47;8.77;;;13.70;48.50;;;;;;5032914;28;20465;-75
2023/03/30 10:12:27;;;;;;;9.63;9.07;;;13.80;49.30;;;;;;5033001;28;20490;-76
2023/03/30 10:15:00;;;;;;;10.07;9.40;;;13.90;48.70;;;;;;5033850;28;20434;-75
2023/03/30 10:17:26;;;;;;;9.77;9.10;;;13.90;48.40;;;;;;5029568;28;20509;-76
2023/03/30 10:20:12;;;;;;;9.93;9.33;;;14.00;48.70;;;;;;5030911;28;20550;-75
2023/03/30 10:22:48;;;;;;;10.00;9.40;;;14.00;48.30;;;;;;5029910;28;20924;-76
2023/03/30 10:25:20;;;;;;;8.97;8.50;;;14.10;48.20;;;;;;5031836;28;20475;-76
2023/03/30 10:27:48;;;;;;;9.63;9.13;;;14.20;47.70;;;;;;5032064;28;20459;-75
2023/03/30 10:30:17;;;;;;;10.40;9.90;;;14.20;47.30;;;;;;5031466;28;20415;-75
2023/03/30 10:32:46;;;;;;;10.63;10.17;;;14.20;46.20;;;;;;5030848;28;20467;-75
2023/03/30 10:35:18;;;;;;;10.27;9.47;;;14.30;47.30;;;;;;5033369;28;20428;-75
2023/03/30 10:37:48;;;;;;;10.67;10.17;;;14.30;47.00;;;;;;5032012;28;20424;-75
2023/03/30 10:40:17;;;;;;;10.13;9.63;;;14.30;46.10;;;;;;5032595;28;20857;-76
2023/03/30 10:42:45;;;;;;;10.90;10.33;;;14.30;46.10;;;;;;5032205;28;20430;-76
2023/03/30 10:45:18;;;;;;;10.20;9.57;;;14.30;45.40;;;;;;5033362;28;20830;-76
2023/03/30 10:48:17;;;;;;;11.90;11.20;;;14.40;45.50;;;;;;5033471;28;20408;-76
2023/03/30 10:50:48;;;;;;;10.43;9.93;;;14.40;46.70;;;;;;5032521;28;20482;-76
2023/03/30 10:53:19;;;;;;;11.60;10.97;;;14.40;45.50;;;;;;5031562;28;20434;-76
2023/03/30 10:56:18;;;;;;;14.33;13.33;;;14.40;45.50;;;;;;5033261;28;20426;-76
2023/03/30 10:59:05;;;;;;;12.17;11.33;;;14.40;45.00;;;;;;5033760;28;20482;-75
2023/03/30 11:01:47;;;;;;;10.90;10.30;;;14.50;45.60;;;;;;5029747;28;21018;-75
2023/03/30 11:04:35;;;;;;;11.07;10.37;;;14.40;43.30;;;;;;5031317;28;20482;-75
2023/03/30 11:07:01;;;;;;;9.97;9.53;;;14.40;44.00;;;;;;5031906;28;20497;-74
2023/03/30 11:09:35;;;;;;;10.40;9.70;;;14.40;44.90;;;;;;5030319;28;20431;-75
2023/03/30 11:12:06;;;;;;;10.90;10.10;;;14.40;46.20;;;;;;5032203;28;20459;-75
2023/03/30 11:14:54;;;;;;;10.00;9.33;;;14.50;47.10;;;;;;5031989;28;20791;-75
2023/03/30 11:18:15;;;;;;;10.90;10.33;;;14.50;46.30;;;;;;5012918;28;20417;-75
2023/03/30 11:20:57;;;;;;;11.60;10.90;;;14.60;45.70;;;;;;5021449;28;20833;-74
2023/03/30 11:23:42;;;;;;;9.80;9.30;;;14.60;44.20;;;;;;5023905;28;20917;-75
2023/03/30 11:26:13;;;;;;;10.80;10.20;;;14.70;45.70;;;;;;5030965;28;20498;-75
2023/03/30 11:28:42;;;;;;;10.10;9.50;;;14.70;45.70;;;;;;5032386;28;20422;-75
2023/03/30 11:31:45;;;;;;;9.40;9.00;;;14.70;45.80;;;;;;5032143;28;20455;-75
2023/03/30 11:34:50;;;;;;;10.77;10.07;;;14.90;47.00;;;;;;5024492;28;20431;-75
2023/03/30 11:37:29;;;;;;;10.87;10.20;;;14.90;46.90;;;;;;5031150;28;20840;-75
2023/03/30 11:40:17;;;;;;;9.83;9.20;;;14.90;45.90;;;;;;5031713;28;20747;-75
2023/03/30 11:42:43;;;;;;;10.57;9.70;;;15.00;46.10;;;;;;5020342;28;20415;-75
2023/03/30 11:45:54;;;;;;;11.07;10.10;;;15.00;45.70;;;;;;5032412;28;20427;-75
2023/03/30 11:48:30;;;;;;;11.50;10.67;;;15.00;45.40;;;;;;4989591;28;20417;-75
2023/03/30 11:51:06;;;;;;;10.30;9.70;;;15.00;45.10;;;;;;5028333;28;20447;-75
2023/03/30 11:53:51;;;;;;;11.40;10.70;;;15.10;45.20;;;;;;5032031;28;20493;-75
2023/03/30 11:56:45;;;;;;;11.80;11.10;;;15.20;43.40;;;;;;5032061;28;20415;-75
2023/03/30 11:59:38;;;;;;;10.87;10.23;;;15.10;42.80;;;;;;5031944;28;20494;-75
2023/03/30 12:02:03;;;;;;;11.67;10.83;;;15.20;44.10;;;;;;5033614;28;20925;-75
2023/03/30 12:04:37;;;;;;;10.53;9.93;;;15.20;43.00;;;;;;5033260;28;20446;-75
2023/03/30 12:07:08;;;;;;;11.27;10.67;;;15.20;41.90;;;;;;5035495;28;20180;-75
2023/03/30 12:09:42;;;;;;;12.30;11.30;;;15.20;43.40;;;;;;5033219;28;20411;-75
2023/03/30 12:12:17;;;;;;;11.10;10.30;;;15.20;43.30;;;;;;5031940;28;20509;-75
2023/03/30 12:14:54;;;;;;;11.67;10.80;;;15.20;42.50;;;;;;5030478;28;20438;-75
2023/03/30 12:17:40;;;;;;;10.90;10.20;;;15.20;43.40;;;;;;5032346;28;20403;-75
2023/03/30 12:20:08;;;;;;;10.50;9.90;;;15.20;44.00;;;;;;5031277;28;20403;-75
2023/03/30 12:22:51;;;;;;;10.60;10.10;;;15.10;42.60;;;;;;5031386;28;20503;-75
2023/03/30 12:25:38;;;;;;;11.20;10.63;;;15.10;43.10;;;;;;5031464;28;20929;-75
2023/03/30 12:28:16;;;;;;;13.17;12.07;;;15.10;43.60;;;;;;5022654;28;20934;-76
2023/03/30 12:30:58;;;;;;;11.23;10.33;;;15.10;43.40;;;;;;5015557;28;20588;-76
2023/03/30 12:33:36;;;;;;;12.17;11.37;;;15.10;43.10;;;;;;5031263;28;20432;-76
2023/03/30 12:36:03;;;;;;;12.00;11.03;;;15.00;42.40;;;;;;5031768;28;20407;-75
2023/03/30 12:38:45;;;;;;;12.17;11.57;;;15.10;43.20;;;;;;5031520;28;20473;-75
2023/03/30 12:41:17;;;;;;;11.50;10.90;;;15.20;43.00;;;;;;5031546;28;20498;-75
2023/03/30 12:43:57;;;;;;;11.17;10.57;;;15.40;41.60;;;;;;5031490;28;20449;-75
2023/03/30 12:46:34;;;;;;;10.43;9.93;;;15.50;40.80;;;;;;5027579;28;20447;-77
2023/03/30 12:49:08;;;;;;;12.20;11.30;;;15.70;39.40;;;;;;5012171;28;20444;-75
2023/03/30 12:52:03;;;;;;;11.87;11.30;;;15.80;38.00;;;;;;5029441;28;20455;-74
2023/03/30 12:55:00;;;;;;;11.03;10.30;;;15.80;36.60;;;;;;5010659;28;20455;-76
2023/03/30 12:57:34;;;;;;;12.37;11.20;;;15.90;37.00;;;;;;5034289;28;20431;-76
2023/03/30 13:00:22;;;;;;;12.27;11.30;;;16.00;36.10;;;;;;5034311;28;20426;-76